Ops Hamburg — A8VS9 — position and weather

sailwx.info

Track history (hours):
 
Tides and Currents Weather Stations Pressure Air Temp Water Temp Dewpoint Dewpoint Depression Visibility Wind Speed Wind Dir Waves Ship Positions

Ops Hamburg

Last reported at 2015-Jul-30 01:33 UTC. Time now 2015-Jul-30 02:04 UTC.
Position N 37°35' E 009°28'.

Length 148 m; draft 6.7 m.

Type: Cargo ship. MMSI: 636092040.

Date/timePositionNaut miles runAvg speedWind from/ knotsBaromVisibWave heightAir tempDewpointWater temp
2015-Jul-30 01:33N 37°35' E 009°28'1212.0
2015-Jul-30 00:32N 37°36' E 009°12'1211.8
2015-Jul-29 23:33N 37°36' E 008°58'1611.4
2015-Jul-29 22:10N 37°33' E 008°38'1811.2
2015-Jul-29 20:33N 37°30' E 008°15'1111.2
2015-Jul-29 19:33N 37°28' E 008°02'7911.3
2015-Jul-29 12:31N 37°14' E 006°24'4610.8
2015-Jul-29 08:16N 36°55' E 005°31'911.6
2015-Jul-29 07:30N 36°51' E 005°21'12 0.2
2015-Jul-27 05:32N 36°45' E 005°08'3 0.1
2015-Jul-25 06:14N 36°45' E 005°12'0 0.0
2015-Jul-25 00:04N 36°44' E 005°12'0 0.0
2015-Jul-24 18:32N 36°45' E 005°11'0 0.0
2015-Jul-24 17:31N 36°44' E 005°11'0 0.0
2015-Jul-24 16:32N 36°44' E 005°11'0 0.0
2015-Jul-24 15:26N 36°44' E 005°11'0 0.0
2015-Jul-23 16:32N 36°45' E 005°11'0 0.0
2015-Jul-22 20:29N 36°44' E 005°11'0 0.0
2015-Jul-22 19:26N 36°45' E 005°11'0 0.0
2015-Jul-22 18:23N 36°45' E 005°11'0 0.0
2015-Jul-22 17:32N 36°45' E 005°11'0 0.0
2015-Jul-22 12:32N 36°44' E 005°11'0 0.0
2015-Jul-22 06:32N 36°45' E 005°12'0 0.1
2015-Jul-22 04:32N 36°45' E 005°11'0 0.0
2015-Jul-22 02:14N 36°45' E 005°11'7 7.1
2015-Jul-22 01:18N 36°49' E 005°17'911.5
2015-Jul-22 00:29N 36°53' E 005°27'1411.6
2015-Jul-21 23:19N 36°59' E 005°43'811.0
2015-Jul-21 22:33N 37°03' E 005°52'1111.1
2015-Jul-21 21:33N 37°07' E 006°05'1111.4
2015-Jul-21 20:33N 37°12' E 006°18'1211.5
2015-Jul-21 19:33N 37°17' E 006°31'4611.2
2015-Jul-21 15:28N 37°25' E 007°28'1111.2
2015-Jul-21 14:30N 37°27' E 007°41'1111.2
2015-Jul-21 13:33N 37°29' E 007°55'2611.2
2015-Jul-21 11:15N 37°34' E 008°26'4111.0
2015-Jul-21 07:32N 37°39' E 009°17'1010.6
2015-Jul-21 06:33N 37°39' E 009°31'1410.3
2015-Jul-21 05:10N 37°39' E 009°49'610.0
2015-Jul-21 04:32N 37°39' E 009°57'10 9.9
2015-Jul-21 03:33N 37°39' E 010°09'3010.0
2015-Jul-21 00:33N 37°33' E 010°46'1110.5
2015-Jul-20 23:32N 37°30' E 010°59'1110.7
2015-Jul-20 22:33N 37°28' E 011°12'1111.0
2015-Jul-20 21:34N 37°22' E 011°24'1211.3
2015-Jul-20 20:32N 37°16' E 011°36'1111.2
2015-Jul-20 19:33N 37°11' E 011°48'1111.0
2015-Jul-20 18:34N 37°05' E 012°00'1110.8
2015-Jul-20 17:33N 36°59' E 012°11'1010.4
2015-Jul-20 16:33N 36°53' E 012°22'1010.3
2015-Jul-20 15:34N 36°47' E 012°32'1110.7
2015-Jul-20 14:34N 36°41' E 012°43'1111.0
2015-Jul-20 13:33N 36°35' E 012°54'1111.3
2015-Jul-20 12:33N 36°28' E 013°06'1111.3
2015-Jul-20 11:33N 36°22' E 013°17'1111.4
2015-Jul-20 10:33N 36°15' E 013°29'1111.0
2015-Jul-20 09:34N 36°09' E 013°40'1110.9
2015-Jul-20 08:33N 36°03' E 013°51'1111.1
2015-Jul-20 07:33N 35°56' E 014°02'1111.0
2015-Jul-20 06:33N 35°50' E 014°13'16 7.9
2015-Jul-20 04:33N 35°49' E 014°33'  
Track history (hours):
 
Tides and Currents Weather Stations Pressure Air Temp Water Temp Dewpoint Dewpoint Depression Visibility Wind Speed Wind Dir Waves Ship Positions

Ops Hamburg

Last reported at 2015-Jul-30 01:33 UTC. Time now 2015-Jul-30 02:04 UTC.
Position N 37°35' E 009°28'.

Length 148 m; draft 6.7 m.

Type: Cargo ship. MMSI: 636092040.

Date/timePositionNaut miles runAvg speedWind from/ knotsBaromVisibWave heightAir tempDewpointWater temp
2015-Jul-30 01:33N 37°35' E 009°28'1212.0
2015-Jul-30 00:32N 37°36' E 009°12'1211.8
2015-Jul-29 23:33N 37°36' E 008°58'1611.4
2015-Jul-29 22:10N 37°33' E 008°38'1811.2
2015-Jul-29 20:33N 37°30' E 008°15'1111.2
2015-Jul-29 19:33N 37°28' E 008°02'7911.3
2015-Jul-29 12:31N 37°14' E 006°24'4610.8
2015-Jul-29 08:16N 36°55' E 005°31'911.6
2015-Jul-29 07:30N 36°51' E 005°21'12 0.2
2015-Jul-27 05:32N 36°45' E 005°08'3 0.1
2015-Jul-25 06:14N 36°45' E 005°12'0 0.0
2015-Jul-25 00:04N 36°44' E 005°12'0 0.0
2015-Jul-24 18:32N 36°45' E 005°11'0 0.0
2015-Jul-24 17:31N 36°44' E 005°11'0 0.0
2015-Jul-24 16:32N 36°44' E 005°11'0 0.0
2015-Jul-24 15:26N 36°44' E 005°11'0 0.0
2015-Jul-23 16:32N 36°45' E 005°11'0 0.0
2015-Jul-22 20:29N 36°44' E 005°11'0 0.0
2015-Jul-22 19:26N 36°45' E 005°11'0 0.0
2015-Jul-22 18:23N 36°45' E 005°11'0 0.0
2015-Jul-22 17:32N 36°45' E 005°11'0 0.0
2015-Jul-22 12:32N 36°44' E 005°11'0 0.0
2015-Jul-22 06:32N 36°45' E 005°12'0 0.1
2015-Jul-22 04:32N 36°45' E 005°11'0 0.0
2015-Jul-22 02:14N 36°45' E 005°11'7 7.1
2015-Jul-22 01:18N 36°49' E 005°17'911.5
2015-Jul-22 00:29N 36°53' E 005°27'1411.6
2015-Jul-21 23:19N 36°59' E 005°43'811.0
2015-Jul-21 22:33N 37°03' E 005°52'1111.1
2015-Jul-21 21:33N 37°07' E 006°05'1111.4
2015-Jul-21 20:33N 37°12' E 006°18'1211.5
2015-Jul-21 19:33N 37°17' E 006°31'4611.2
2015-Jul-21 15:28N 37°25' E 007°28'1111.2
2015-Jul-21 14:30N 37°27' E 007°41'1111.2
2015-Jul-21 13:33N 37°29' E 007°55'2611.2
2015-Jul-21 11:15N 37°34' E 008°26'4111.0
2015-Jul-21 07:32N 37°39' E 009°17'1010.6
2015-Jul-21 06:33N 37°39' E 009°31'1410.3
2015-Jul-21 05:10N 37°39' E 009°49'610.0
2015-Jul-21 04:32N 37°39' E 009°57'10 9.9
2015-Jul-21 03:33N 37°39' E 010°09'3010.0
2015-Jul-21 00:33N 37°33' E 010°46'1110.5
2015-Jul-20 23:32N 37°30' E 010°59'1110.7
2015-Jul-20 22:33N 37°28' E 011°12'1111.0
2015-Jul-20 21:34N 37°22' E 011°24'1211.3
2015-Jul-20 20:32N 37°16' E 011°36'1111.2
2015-Jul-20 19:33N 37°11' E 011°48'1111.0
2015-Jul-20 18:34N 37°05' E 012°00'1110.8
2015-Jul-20 17:33N 36°59' E 012°11'1010.4
2015-Jul-20 16:33N 36°53' E 012°22'1010.3
2015-Jul-20 15:34N 36°47' E 012°32'1110.7
2015-Jul-20 14:34N 36°41' E 012°43'1111.0
2015-Jul-20 13:33N 36°35' E 012°54'1111.3
2015-Jul-20 12:33N 36°28' E 013°06'1111.3
2015-Jul-20 11:33N 36°22' E 013°17'1111.4
2015-Jul-20 10:33N 36°15' E 013°29'1111.0
2015-Jul-20 09:34N 36°09' E 013°40'1110.9
2015-Jul-20 08:33N 36°03' E 013°51'1111.1
2015-Jul-20 07:33N 35°56' E 014°02'1111.0
2015-Jul-20 06:33N 35°50' E 014°13'16 7.9
2015-Jul-20 04:33N 35°49' E 014°33'  

Dump ship's entire track history